createdAt,value
2023-04-20T00:05:07.915Z,70.54
2023-04-20T00:13:31.093Z,70.61
2023-04-20T00:21:54.727Z,70.67
2023-04-20T00:30:17.672Z,70.67
2023-04-20T00:38:41.281Z,70.52
2023-04-20T00:47:04.240Z,70.77
2023-04-20T00:55:31.215Z,70.91
2023-04-20T01:03:54.867Z,70.84
2023-04-20T01:12:17.844Z,70.65
2023-04-20T01:20:40.756Z,70.87
2023-04-20T01:29:03.728Z,70.75
2023-04-20T01:37:26.773Z,70.72
2023-04-20T01:45:49.736Z,70.84
2023-04-20T01:54:12.925Z,70.79
2023-04-20T02:02:36.207Z,70.85
2023-04-20T02:10:59.281Z,70.98
2023-04-20T02:19:22.437Z,71.03
2023-04-20T02:27:45.300Z,71.02
2023-04-20T02:36:08.460Z,70.95
2023-04-20T02:44:31.321Z,70.96
2023-04-20T02:52:55.060Z,71.01
2023-04-20T03:01:19.497Z,71.00
2023-04-20T03:09:44.162Z,71.04
2023-04-20T03:18:13.155Z,71.17
2023-04-20T03:26:37.083Z,71.11
2023-04-20T03:35:10.350Z,70.89
2023-04-20T03:43:33.324Z,71.15
2023-04-20T03:51:56.366Z,71.08
2023-04-20T04:00:20.031Z,71.13
2023-04-20T04:08:43.213Z,71.07
2023-04-20T04:17:08.320Z,71.11
2023-04-20T04:25:33.817Z,71.21
2023-04-20T04:33:57.513Z,71.24
2023-04-20T04:42:27.895Z,71.17
2023-04-20T04:50:52.043Z,71.35
2023-04-20T04:59:15.346Z,71.26
2023-04-20T05:07:40.486Z,71.38
2023-04-20T05:16:03.526Z,71.47
2023-04-20T05:24:26.919Z,71.65
2023-04-20T05:32:52.341Z,71.77
2023-04-20T05:41:16.043Z,71.77
2023-04-20T05:49:39.773Z,71.71
2023-04-20T05:58:02.599Z,71.97
2023-04-20T06:06:26.540Z,71.95
2023-04-20T06:14:49.708Z,72.01
2023-04-20T06:23:12.802Z,72.09
2023-04-20T06:31:36.136Z,72.17
2023-04-20T06:39:59.632Z,72.21
2023-04-20T06:48:30.886Z,72.31
2023-04-20T06:56:55.916Z,72.39
2023-04-20T07:05:20.356Z,72.43
2023-04-20T07:13:43.204Z,72.37
2023-04-20T07:22:06.051Z,72.34
2023-04-20T07:30:28.966Z,72.33
2023-04-20T07:38:51.970Z,72.47
2023-04-20T07:47:14.951Z,72.35
2023-04-20T07:55:37.876Z,72.63
2023-04-20T08:04:01.866Z,72.44
2023-04-20T08:12:25.496Z,72.54
2023-04-20T08:20:48.818Z,72.55
2023-04-20T08:29:12.303Z,72.20
2023-04-20T08:37:35.731Z,72.47
2023-04-20T08:46:01.858Z,72.36
2023-04-20T08:54:25.562Z,72.17
2023-04-20T09:02:54.037Z,72.31
2023-04-20T09:11:28.576Z,72.07
2023-04-20T09:19:54.961Z,72.11
2023-04-20T09:28:18.358Z,72.07
2023-04-20T09:36:55.614Z,71.95
2023-04-20T09:45:18.881Z,71.97
2023-04-20T09:53:43.008Z,71.84
2023-04-20T10:02:12.545Z,71.67
2023-04-20T10:10:49.539Z,71.61
2023-04-20T10:19:12.791Z,71.39
2023-04-20T10:27:36.126Z,71.42
2023-04-20T10:35:59.511Z,71.27
2023-04-20T10:44:23.006Z,71.20
2023-04-20T10:52:46.426Z,71.10
2023-04-20T11:01:09.673Z,70.89
2023-04-20T11:09:35.249Z,70.77
2023-04-20T11:18:08.534Z,70.64
2023-04-20T11:26:41.340Z,70.59
2023-04-20T11:35:09.316Z,70.59
2023-04-20T11:43:33.092Z,70.40
2023-04-20T11:51:56.143Z,70.21
2023-04-20T12:00:20.552Z,70.17
2023-04-20T12:08:44.730Z,70.00
2023-04-20T12:17:08.029Z,69.82
2023-04-20T12:25:31.244Z,69.72
2023-04-20T12:33:54.112Z,69.72
2023-04-20T12:42:17.158Z,69.59
2023-04-20T12:50:40.477Z,69.60
2023-04-20T12:59:03.623Z,69.30
2023-04-20T13:07:28.075Z,69.25
2023-04-20T13:15:54.412Z,69.15
2023-04-20T13:24:18.063Z,69.02
2023-04-20T13:32:41.837Z,68.92
2023-04-20T13:41:04.975Z,69.01
2023-04-20T13:49:27.930Z,68.71
2023-04-20T13:57:50.815Z,68.51
2023-04-20T14:06:13.697Z,68.43
2023-04-20T14:14:36.582Z,68.30
2023-04-20T14:22:59.447Z,68.18
2023-04-20T14:31:22.563Z,68.12
2023-04-20T14:39:45.476Z,67.94
2023-04-20T14:48:08.712Z,67.98
2023-04-20T14:56:31.785Z,67.88
2023-04-20T15:04:54.967Z,67.77
2023-04-20T15:13:18.045Z,67.62
2023-04-20T15:21:42.593Z,67.38
2023-04-20T15:30:07.259Z,67.16
2023-04-20T15:38:30.271Z,67.18
2023-04-20T15:46:53.401Z,67.02
2023-04-20T15:55:17.063Z,67.01
2023-04-20T16:03:40.327Z,66.77
2023-04-20T16:12:04.534Z,66.65
2023-04-20T16:20:27.474Z,66.77
2023-04-20T16:28:50.375Z,66.46
2023-04-20T16:37:13.212Z,66.61
2023-04-20T16:45:37.793Z,66.42
2023-04-20T16:54:01.631Z,66.26
2023-04-20T17:02:31.470Z,66.14
2023-04-20T17:10:54.585Z,66.04
2023-04-20T17:19:17.665Z,66.02
2023-04-20T17:27:41.756Z,65.93
2023-04-20T17:36:04.826Z,65.68
2023-04-20T17:44:27.656Z,65.47
2023-04-20T17:52:51.716Z,65.37
2023-04-20T18:01:15.558Z,65.23
2023-04-20T18:09:39.704Z,64.95
2023-04-20T18:18:02.632Z,65.04
2023-04-20T18:26:25.707Z,64.87
2023-04-20T18:34:49.060Z,64.58
2023-04-20T18:43:12.014Z,64.39
2023-04-20T18:51:34.850Z,64.38
2023-04-20T18:59:57.716Z,64.19
2023-04-20T19:08:20.776Z,64.09
2023-04-20T19:16:43.688Z,64.07
2023-04-20T19:25:07.394Z,63.97
2023-04-20T19:33:30.383Z,63.88
2023-04-20T19:41:53.339Z,64.00
2023-04-20T19:50:16.538Z,63.91
2023-04-20T19:58:39.461Z,63.90
2023-04-20T20:07:02.372Z,63.73
2023-04-20T20:15:25.469Z,63.80
2023-04-20T20:23:48.511Z,63.95
2023-04-20T20:32:11.446Z,63.70
2023-04-20T20:40:35.591Z,63.80
2023-04-20T20:49:00.632Z,63.67
2023-04-20T20:57:23.991Z,63.47
2023-04-20T21:05:46.916Z,63.54
2023-04-20T21:14:09.896Z,63.30
2023-04-20T21:22:32.816Z,63.45
2023-04-20T21:30:56.083Z,63.26
2023-04-20T21:39:19.238Z,63.17
2023-04-20T21:47:42.318Z,63.15
2023-04-20T21:56:05.556Z,62.93
2023-04-20T22:04:28.705Z,63.00
2023-04-20T22:12:51.766Z,63.05
2023-04-20T22:21:14.630Z,62.97
2023-04-20T22:29:37.657Z,62.91
2023-04-20T22:38:00.566Z,62.81
2023-04-20T22:46:23.454Z,62.77
2023-04-20T22:54:48.400Z,62.89
2023-04-20T23:03:11.549Z,62.76
2023-04-20T23:11:38.813Z,62.62
2023-04-20T23:20:01.692Z,62.64
2023-04-20T23:28:24.713Z,62.84
2023-04-20T23:36:47.692Z,62.50
2023-04-20T23:45:11.308Z,62.61
2023-04-20T23:53:39.161Z,62.62
